sensor_id;sensor_type;location;lat;lon;timestamp;P1;durP1;ratioP1;P2;durP2;ratioP2
50773;SDS011;36745;48.544;8.918;2022-08-19T00:01:36;24.75;;;19.98;;
50773;SDS011;36745;48.544;8.918;2022-08-19T00:04:38;22.63;;;20.23;;
50773;SDS011;36745;48.544;8.918;2022-08-19T00:07:41;23.83;;;19.70;;
50773;SDS011;36745;48.544;8.918;2022-08-19T00:10:43;23.52;;;19.48;;
50773;SDS011;36745;48.544;8.918;2022-08-19T00:16:48;22.50;;;20.10;;
50773;SDS011;36745;48.544;8.918;2022-08-19T00:22:52;24.98;;;20.98;;
50773;SDS011;36745;48.544;8.918;2022-08-19T00:25:54;24.70;;;21.40;;
50773;SDS011;36745;48.544;8.918;2022-08-19T00:28:56;27.10;;;19.92;;
50773;SDS011;36745;48.544;8.918;2022-08-19T00:31:57;25.13;;;20.25;;
50773;SDS011;36745;48.544;8.918;2022-08-19T00:38:01;23.70;;;20.05;;
50773;SDS011;36745;48.544;8.918;2022-08-19T00:41:06;25.33;;;21.63;;
50773;SDS011;36745;48.544;8.918;2022-08-19T00:44:08;23.33;;;20.88;;
50773;SDS011;36745;48.544;8.918;2022-08-19T00:47:11;24.55;;;21.42;;
50773;SDS011;36745;48.544;8.918;2022-08-19T00:50:14;27.50;;;22.27;;
50773;SDS011;36745;48.544;8.918;2022-08-19T00:53:19;28.25;;;22.52;;
50773;SDS011;36745;48.544;8.918;2022-08-19T00:56:23;27.25;;;23.00;;
50773;SDS011;36745;48.544;8.918;2022-08-19T00:59:24;24.35;;;21.73;;
50773;SDS011;36745;48.544;8.918;2022-08-19T01:02:26;28.67;;;22.45;;
50773;SDS011;36745;48.544;8.918;2022-08-19T01:05:28;30.92;;;23.17;;
50773;SDS011;36745;48.544;8.918;2022-08-19T01:08:29;31.55;;;24.02;;
50773;SDS011;36745;48.544;8.918;2022-08-19T01:11:31;29.77;;;24.15;;
50773;SDS011;36745;48.544;8.918;2022-08-19T01:14:37;40.33;;;26.63;;
50773;SDS011;36745;48.544;8.918;2022-08-19T01:17:40;37.83;;;26.30;;
50773;SDS011;36745;48.544;8.918;2022-08-19T01:20:42;40.55;;;26.75;;
50773;SDS011;36745;48.544;8.918;2022-08-19T01:23:44;45.75;;;30.23;;
50773;SDS011;36745;48.544;8.918;2022-08-19T01:26:45;34.47;;;27.35;;
50773;SDS011;36745;48.544;8.918;2022-08-19T01:29:48;41.83;;;29.67;;
50773;SDS011;36745;48.544;8.918;2022-08-19T01:32:50;38.85;;;28.73;;
50773;SDS011;36745;48.544;8.918;2022-08-19T01:35:52;48.20;;;29.00;;
50773;SDS011;36745;48.544;8.918;2022-08-19T01:38:53;44.30;;;30.25;;
50773;SDS011;36745;48.544;8.918;2022-08-19T01:41:55;42.55;;;30.05;;
50773;SDS011;36745;48.544;8.918;2022-08-19T01:44:56;40.55;;;30.20;;
50773;SDS011;36745;48.544;8.918;2022-08-19T01:47:58;40.10;;;30.70;;
50773;SDS011;36745;48.544;8.918;2022-08-19T01:50:59;42.75;;;30.98;;
50773;SDS011;36745;48.544;8.918;2022-08-19T01:54:00;44.88;;;32.85;;
50773;SDS011;36745;48.544;8.918;2022-08-19T01:57:03;46.70;;;32.35;;
50773;SDS011;36745;48.544;8.918;2022-08-19T02:00:09;44.28;;;31.83;;
50773;SDS011;36745;48.544;8.918;2022-08-19T02:03:12;42.55;;;32.47;;
50773;SDS011;36745;48.544;8.918;2022-08-19T02:06:13;43.13;;;31.23;;
50773;SDS011;36745;48.544;8.918;2022-08-19T02:09:17;46.97;;;32.80;;
50773;SDS011;36745;48.544;8.918;2022-08-19T02:12:18;42.28;;;31.17;;
50773;SDS011;36745;48.544;8.918;2022-08-19T02:15:20;48.05;;;33.28;;
50773;SDS011;36745;48.544;8.918;2022-08-19T02:18:21;47.15;;;33.30;;
50773;SDS011;36745;48.544;8.918;2022-08-19T02:21:22;42.78;;;32.60;;
50773;SDS011;36745;48.544;8.918;2022-08-19T02:24:25;46.47;;;33.67;;
50773;SDS011;36745;48.544;8.918;2022-08-19T02:27:26;45.55;;;33.55;;
50773;SDS011;36745;48.544;8.918;2022-08-19T02:30:28;50.35;;;34.38;;
50773;SDS011;36745;48.544;8.918;2022-08-19T02:33:29;45.35;;;33.50;;
50773;SDS011;36745;48.544;8.918;2022-08-19T02:36:30;51.00;;;35.70;;
50773;SDS011;36745;48.544;8.918;2022-08-19T02:39:31;50.38;;;34.70;;
50773;SDS011;36745;48.544;8.918;2022-08-19T02:42:32;49.22;;;33.97;;
50773;SDS011;36745;48.544;8.918;2022-08-19T02:45:34;45.85;;;32.70;;
50773;SDS011;36745;48.544;8.918;2022-08-19T02:48:36;47.10;;;34.15;;
50773;SDS011;36745;48.544;8.918;2022-08-19T02:51:38;51.97;;;34.17;;
50773;SDS011;36745;48.544;8.918;2022-08-19T02:54:40;47.08;;;33.53;;
50773;SDS011;36745;48.544;8.918;2022-08-19T02:57:41;47.40;;;34.80;;
50773;SDS011;36745;48.544;8.918;2022-08-19T03:00:44;47.08;;;34.25;;
50773;SDS011;36745;48.544;8.918;2022-08-19T03:03:49;50.00;;;34.97;;
50773;SDS011;36745;48.544;8.918;2022-08-19T03:06:51;47.30;;;35.05;;
50773;SDS011;36745;48.544;8.918;2022-08-19T03:09:52;48.22;;;33.67;;
50773;SDS011;36745;48.544;8.918;2022-08-19T03:12:53;46.47;;;34.35;;
50773;SDS011;36745;48.544;8.918;2022-08-19T03:15:54;47.95;;;34.88;;
50773;SDS011;36745;48.544;8.918;2022-08-19T03:18:56;47.72;;;34.90;;
50773;SDS011;36745;48.544;8.918;2022-08-19T03:22:00;48.95;;;35.55;;
50773;SDS011;36745;48.544;8.918;2022-08-19T03:25:01;48.65;;;35.47;;
50773;SDS011;36745;48.544;8.918;2022-08-19T03:28:03;49.42;;;35.58;;
50773;SDS011;36745;48.544;8.918;2022-08-19T03:31:06;49.08;;;33.95;;
50773;SDS011;36745;48.544;8.918;2022-08-19T03:34:13;49.85;;;35.33;;
50773;SDS011;36745;48.544;8.918;2022-08-19T03:37:17;45.78;;;33.50;;
50773;SDS011;36745;48.544;8.918;2022-08-19T03:40:19;51.38;;;35.42;;
50773;SDS011;36745;48.544;8.918;2022-08-19T03:43:20;49.35;;;36.05;;
50773;SDS011;36745;48.544;8.918;2022-08-19T03:46:22;52.15;;;39.35;;
50773;SDS011;36745;48.544;8.918;2022-08-19T03:49:28;50.63;;;37.45;;
50773;SDS011;36745;48.544;8.918;2022-08-19T03:52:30;54.30;;;37.38;;
50773;SDS011;36745;48.544;8.918;2022-08-19T03:55:31;52.45;;;37.13;;
50773;SDS011;36745;48.544;8.918;2022-08-19T03:58:32;53.97;;;36.67;;
50773;SDS011;36745;48.544;8.918;2022-08-19T04:01:35;49.13;;;36.88;;
50773;SDS011;36745;48.544;8.918;2022-08-19T04:04:37;53.00;;;36.83;;
50773;SDS011;36745;48.544;8.918;2022-08-19T04:07:43;50.15;;;36.42;;
50773;SDS011;36745;48.544;8.918;2022-08-19T04:10:44;56.17;;;38.03;;
50773;SDS011;36745;48.544;8.918;2022-08-19T04:13:45;58.72;;;39.30;;
50773;SDS011;36745;48.544;8.918;2022-08-19T04:16:48;53.25;;;37.38;;
50773;SDS011;36745;48.544;8.918;2022-08-19T04:19:49;55.28;;;39.08;;
50773;SDS011;36745;48.544;8.918;2022-08-19T04:22:50;50.30;;;36.35;;
50773;SDS011;36745;48.544;8.918;2022-08-19T04:25:51;55.47;;;38.90;;
50773;SDS011;36745;48.544;8.918;2022-08-19T04:28:52;54.88;;;37.08;;
50773;SDS011;36745;48.544;8.918;2022-08-19T04:31:55;56.28;;;38.85;;
50773;SDS011;36745;48.544;8.918;2022-08-19T04:34:57;58.42;;;40.47;;
50773;SDS011;36745;48.544;8.918;2022-08-19T04:37:59;54.73;;;39.27;;
50773;SDS011;36745;48.544;8.918;2022-08-19T04:41:02;59.78;;;41.33;;
50773;SDS011;36745;48.544;8.918;2022-08-19T04:44:22;56.65;;;40.40;;
50773;SDS011;36745;48.544;8.918;2022-08-19T04:47:23;58.10;;;39.75;;
50773;SDS011;36745;48.544;8.918;2022-08-19T04:50:25;60.45;;;41.60;;
50773;SDS011;36745;48.544;8.918;2022-08-19T04:53:27;58.05;;;43.25;;
50773;SDS011;36745;48.544;8.918;2022-08-19T04:56:31;64.97;;;42.95;;
50773;SDS011;36745;48.544;8.918;2022-08-19T04:59:32;62.08;;;42.95;;
50773;SDS011;36745;48.544;8.918;2022-08-19T05:02:34;58.33;;;40.97;;
50773;SDS011;36745;48.544;8.918;2022-08-19T05:05:37;60.00;;;42.90;;
50773;SDS011;36745;48.544;8.918;2022-08-19T05:08:41;65.75;;;44.42;;
50773;SDS011;36745;48.544;8.918;2022-08-19T05:11:43;65.50;;;43.97;;
50773;SDS011;36745;48.544;8.918;2022-08-19T05:14:45;62.53;;;43.50;;
50773;SDS011;36745;48.544;8.918;2022-08-19T05:21:08;58.65;;;42.28;;
50773;SDS011;36745;48.544;8.918;2022-08-19T05:24:29;55.55;;;42.40;;
50773;SDS011;36745;48.544;8.918;2022-08-19T05:27:30;57.38;;;41.50;;
50773;SDS011;36745;48.544;8.918;2022-08-19T05:30:31;57.63;;;41.15;;
50773;SDS011;36745;48.544;8.918;2022-08-19T05:33:33;61.92;;;42.88;;
50773;SDS011;36745;48.544;8.918;2022-08-19T05:36:35;63.70;;;44.65;;
50773;SDS011;36745;48.544;8.918;2022-08-19T05:39:40;59.28;;;43.35;;
50773;SDS011;36745;48.544;8.918;2022-08-19T05:42:41;61.53;;;44.53;;
50773;SDS011;36745;48.544;8.918;2022-08-19T05:45:43;62.95;;;44.33;;
50773;SDS011;36745;48.544;8.918;2022-08-19T05:48:44;65.80;;;44.72;;
50773;SDS011;36745;48.544;8.918;2022-08-19T05:51:46;59.95;;;44.00;;
50773;SDS011;36745;48.544;8.918;2022-08-19T05:54:48;66.53;;;46.67;;
50773;SDS011;36745;48.544;8.918;2022-08-19T05:57:51;65.40;;;46.00;;
50773;SDS011;36745;48.544;8.918;2022-08-19T06:00:53;64.38;;;45.03;;
50773;SDS011;36745;48.544;8.918;2022-08-19T06:03:54;67.35;;;44.25;;
50773;SDS011;36745;48.544;8.918;2022-08-19T06:06:58;60.97;;;45.00;;
50773;SDS011;36745;48.544;8.918;2022-08-19T06:09:59;62.65;;;44.85;;
50773;SDS011;36745;48.544;8.918;2022-08-19T06:13:00;60.30;;;43.25;;
50773;SDS011;36745;48.544;8.918;2022-08-19T06:16:01;57.33;;;42.60;;
50773;SDS011;36745;48.544;8.918;2022-08-19T06:19:03;65.60;;;44.88;;
50773;SDS011;36745;48.544;8.918;2022-08-19T06:22:07;63.28;;;44.70;;
50773;SDS011;36745;48.544;8.918;2022-08-19T06:25:09;64.70;;;43.20;;
50773;SDS011;36745;48.544;8.918;2022-08-19T06:28:11;52.42;;;40.22;;
50773;SDS011;36745;48.544;8.918;2022-08-19T06:31:16;59.05;;;43.85;;
50773;SDS011;36745;48.544;8.918;2022-08-19T06:34:21;55.35;;;43.67;;
50773;SDS011;36745;48.544;8.918;2022-08-19T06:37:22;56.50;;;42.63;;
50773;SDS011;36745;48.544;8.918;2022-08-19T06:40:24;59.47;;;43.75;;
50773;SDS011;36745;48.544;8.918;2022-08-19T06:43:27;61.33;;;44.40;;
50773;SDS011;36745;48.544;8.918;2022-08-19T06:46:28;60.80;;;43.92;;
50773;SDS011;36745;48.544;8.918;2022-08-19T06:49:31;60.88;;;43.45;;
50773;SDS011;36745;48.544;8.918;2022-08-19T06:52:33;54.22;;;41.25;;
50773;SDS011;36745;48.544;8.918;2022-08-19T06:55:35;60.30;;;44.03;;
50773;SDS011;36745;48.544;8.918;2022-08-19T06:58:38;61.67;;;40.87;;
50773;SDS011;36745;48.544;8.918;2022-08-19T07:01:44;58.67;;;43.10;;
50773;SDS011;36745;48.544;8.918;2022-08-19T07:04:47;62.33;;;44.65;;
50773;SDS011;36745;48.544;8.918;2022-08-19T07:07:48;60.65;;;42.80;;
50773;SDS011;36745;48.544;8.918;2022-08-19T07:10:50;57.65;;;42.47;;
50773;SDS011;36745;48.544;8.918;2022-08-19T07:13:51;69.32;;;44.38;;
50773;SDS011;36745;48.544;8.918;2022-08-19T07:16:54;54.38;;;41.40;;
50773;SDS011;36745;48.544;8.918;2022-08-19T07:22:58;60.28;;;43.47;;
50773;SDS011;36745;48.544;8.918;2022-08-19T07:26:05;55.08;;;42.20;;
50773;SDS011;36745;48.544;8.918;2022-08-19T07:29:07;58.40;;;43.63;;
50773;SDS011;36745;48.544;8.918;2022-08-19T07:32:10;56.03;;;42.83;;
50773;SDS011;36745;48.544;8.918;2022-08-19T07:35:12;58.28;;;41.00;;
50773;SDS011;36745;48.544;8.918;2022-08-19T07:38:14;60.03;;;41.10;;
50773;SDS011;36745;48.544;8.918;2022-08-19T07:41:18;56.90;;;41.60;;
50773;SDS011;36745;48.544;8.918;2022-08-19T07:44:21;58.97;;;41.97;;
50773;SDS011;36745;48.544;8.918;2022-08-19T07:47:23;57.35;;;42.03;;
50773;SDS011;36745;48.544;8.918;2022-08-19T07:50:25;52.83;;;41.20;;
50773;SDS011;36745;48.544;8.918;2022-08-19T07:53:26;55.45;;;40.10;;
50773;SDS011;36745;48.544;8.918;2022-08-19T07:56:31;50.00;;;38.30;;
50773;SDS011;36745;48.544;8.918;2022-08-19T07:59:32;47.22;;;38.35;;
50773;SDS011;36745;48.544;8.918;2022-08-19T08:02:33;50.72;;;37.22;;
50773;SDS011;36745;48.544;8.918;2022-08-19T08:05:34;47.63;;;37.25;;
50773;SDS011;36745;48.544;8.918;2022-08-19T08:08:54;41.95;;;32.95;;
50773;SDS011;36745;48.544;8.918;2022-08-19T08:12:24;40.65;;;32.50;;
50773;SDS011;36745;48.544;8.918;2022-08-19T08:15:31;41.67;;;33.72;;
50773;SDS011;36745;48.544;8.918;2022-08-19T08:18:32;41.47;;;31.98;;
50773;SDS011;36745;48.544;8.918;2022-08-19T08:21:35;39.47;;;27.03;;
50773;SDS011;36745;48.544;8.918;2022-08-19T08:24:36;34.70;;;26.52;;
50773;SDS011;36745;48.544;8.918;2022-08-19T08:27:39;34.38;;;27.23;;
50773;SDS011;36745;48.544;8.918;2022-08-19T08:30:42;30.83;;;25.85;;
50773;SDS011;36745;48.544;8.918;2022-08-19T08:33:49;33.55;;;26.77;;
50773;SDS011;36745;48.544;8.918;2022-08-19T08:37:05;30.63;;;24.45;;
50773;SDS011;36745;48.544;8.918;2022-08-19T08:40:19;32.97;;;25.63;;
50773;SDS011;36745;48.544;8.918;2022-08-19T08:43:44;28.85;;;24.30;;
50773;SDS011;36745;48.544;8.918;2022-08-19T08:47:02;32.30;;;25.02;;
50773;SDS011;36745;48.544;8.918;2022-08-19T08:50:19;29.15;;;24.77;;
50773;SDS011;36745;48.544;8.918;2022-08-19T08:53:21;28.88;;;25.10;;
50773;SDS011;36745;48.544;8.918;2022-08-19T08:56:24;27.38;;;23.38;;
50773;SDS011;36745;48.544;8.918;2022-08-19T08:59:31;29.40;;;24.13;;
50773;SDS011;36745;48.544;8.918;2022-08-19T09:02:37;31.17;;;23.63;;
50773;SDS011;36745;48.544;8.918;2022-08-19T09:12:08;27.40;;;22.92;;
50773;SDS011;36745;48.544;8.918;2022-08-19T09:15:40;27.27;;;22.10;;
50773;SDS011;36745;48.544;8.918;2022-08-19T09:18:50;28.42;;;22.65;;
50773;SDS011;36745;48.544;8.918;2022-08-19T09:21:54;32.35;;;23.23;;
50773;SDS011;36745;48.544;8.918;2022-08-19T09:24:56;26.15;;;21.30;;
50773;SDS011;36745;48.544;8.918;2022-08-19T09:27:57;24.08;;;21.48;;
50773;SDS011;36745;48.544;8.918;2022-08-19T09:31:03;25.92;;;21.42;;
50773;SDS011;36745;48.544;8.918;2022-08-19T09:34:04;29.75;;;23.60;;
50773;SDS011;36745;48.544;8.918;2022-08-19T09:37:05;26.55;;;23.20;;
50773;SDS011;36745;48.544;8.918;2022-08-19T09:40:07;29.20;;;23.42;;
50773;SDS011;36745;48.544;8.918;2022-08-19T09:43:08;26.73;;;23.85;;
50773;SDS011;36745;48.544;8.918;2022-08-19T09:46:11;29.23;;;25.27;;
50773;SDS011;36745;48.544;8.918;2022-08-19T09:49:14;28.42;;;23.67;;
50773;SDS011;36745;48.544;8.918;2022-08-19T09:52:17;32.97;;;24.75;;
50773;SDS011;36745;48.544;8.918;2022-08-19T09:55:19;27.05;;;24.23;;
50773;SDS011;36745;48.544;8.918;2022-08-19T09:58:27;28.63;;;24.83;;
50773;SDS011;36745;48.544;8.918;2022-08-19T10:01:37;26.60;;;23.63;;
50773;SDS011;36745;48.544;8.918;2022-08-19T10:08:40;32.28;;;23.55;;
50773;SDS011;36745;48.544;8.918;2022-08-19T10:11:43;27.75;;;24.05;;
50773;SDS011;36745;48.544;8.918;2022-08-19T10:14:50;25.70;;;22.92;;
50773;SDS011;36745;48.544;8.918;2022-08-19T10:17:54;26.92;;;23.08;;
50773;SDS011;36745;48.544;8.918;2022-08-19T10:21:02;24.83;;;21.95;;
50773;SDS011;36745;48.544;8.918;2022-08-19T10:24:08;24.85;;;22.20;;
50773;SDS011;36745;48.544;8.918;2022-08-19T10:27:09;24.73;;;21.80;;
50773;SDS011;36745;48.544;8.918;2022-08-19T10:30:14;29.20;;;22.10;;
50773;SDS011;36745;48.544;8.918;2022-08-19T10:33:16;27.63;;;22.27;;
50773;SDS011;36745;48.544;8.918;2022-08-19T10:36:18;24.70;;;22.10;;
50773;SDS011;36745;48.544;8.918;2022-08-19T10:39:23;23.27;;;20.88;;
50773;SDS011;36745;48.544;8.918;2022-08-19T10:42:25;24.30;;;20.00;;
50773;SDS011;36745;48.544;8.918;2022-08-19T10:45:27;22.38;;;20.10;;
50773;SDS011;36745;48.544;8.918;2022-08-19T10:48:28;23.38;;;20.23;;
50773;SDS011;36745;48.544;8.918;2022-08-19T10:51:29;23.70;;;19.48;;
50773;SDS011;36745;48.544;8.918;2022-08-19T10:54:50;25.02;;;20.98;;
50773;SDS011;36745;48.544;8.918;2022-08-19T10:58:11;23.38;;;20.80;;
50773;SDS011;36745;48.544;8.918;2022-08-19T11:01:17;23.80;;;21.00;;
50773;SDS011;36745;48.544;8.918;2022-08-19T11:04:18;21.45;;;19.25;;
50773;SDS011;36745;48.544;8.918;2022-08-19T11:07:20;22.38;;;18.58;;
50773;SDS011;36745;48.544;8.918;2022-08-19T11:10:21;22.42;;;18.27;;
50773;SDS011;36745;48.544;8.918;2022-08-19T11:13:23;22.13;;;18.90;;
50773;SDS011;36745;48.544;8.918;2022-08-19T11:16:25;18.65;;;16.65;;
50773;SDS011;36745;48.544;8.918;2022-08-19T11:19:31;20.33;;;18.35;;
50773;SDS011;36745;48.544;8.918;2022-08-19T11:22:32;17.42;;;15.63;;
50773;SDS011;36745;48.544;8.918;2022-08-19T11:25:33;19.10;;;16.67;;
50773;SDS011;36745;48.544;8.918;2022-08-19T11:28:36;21.38;;;16.25;;
50773;SDS011;36745;48.544;8.918;2022-08-19T11:31:39;17.33;;;15.63;;
50773;SDS011;36745;48.544;8.918;2022-08-19T11:34:42;20.25;;;15.10;;
50773;SDS011;36745;48.544;8.918;2022-08-19T11:37:43;17.75;;;15.93;;
50773;SDS011;36745;48.544;8.918;2022-08-19T11:40:44;16.63;;;14.77;;
50773;SDS011;36745;48.544;8.918;2022-08-19T11:43:45;27.20;;;14.57;;
50773;SDS011;36745;48.544;8.918;2022-08-19T11:46:46;17.70;;;14.88;;
50773;SDS011;36745;48.544;8.918;2022-08-19T11:49:47;18.15;;;14.20;;
50773;SDS011;36745;48.544;8.918;2022-08-19T11:52:48;17.95;;;14.90;;
50773;SDS011;36745;48.544;8.918;2022-08-19T11:55:50;17.65;;;14.95;;
50773;SDS011;36745;48.544;8.918;2022-08-19T11:58:56;17.33;;;15.52;;
50773;SDS011;36745;48.544;8.918;2022-08-19T12:01:57;18.35;;;15.63;;
50773;SDS011;36745;48.544;8.918;2022-08-19T12:04:59;21.15;;;15.35;;
50773;SDS011;36745;48.544;8.918;2022-08-19T12:08:03;22.27;;;15.73;;
50773;SDS011;36745;48.544;8.918;2022-08-19T12:11:05;18.88;;;15.18;;
50773;SDS011;36745;48.544;8.918;2022-08-19T12:14:12;20.63;;;15.98;;
50773;SDS011;36745;48.544;8.918;2022-08-19T12:17:14;21.38;;;16.23;;
50773;SDS011;36745;48.544;8.918;2022-08-19T12:20:15;17.58;;;15.73;;
50773;SDS011;36745;48.544;8.918;2022-08-19T12:23:17;19.92;;;16.45;;
50773;SDS011;36745;48.544;8.918;2022-08-19T12:26:18;21.75;;;19.00;;
50773;SDS011;36745;48.544;8.918;2022-08-19T12:29:19;23.45;;;20.98;;
50773;SDS011;36745;48.544;8.918;2022-08-19T12:32:23;28.23;;;23.73;;
50773;SDS011;36745;48.544;8.918;2022-08-19T12:35:25;26.70;;;22.52;;
50773;SDS011;36745;48.544;8.918;2022-08-19T12:38:26;29.65;;;22.67;;
50773;SDS011;36745;48.544;8.918;2022-08-19T12:41:27;22.92;;;20.70;;
50773;SDS011;36745;48.544;8.918;2022-08-19T12:44:28;22.38;;;20.02;;
50773;SDS011;36745;48.544;8.918;2022-08-19T12:47:30;25.08;;;21.20;;
50773;SDS011;36745;48.544;8.918;2022-08-19T12:50:32;23.98;;;20.95;;
50773;SDS011;36745;48.544;8.918;2022-08-19T12:53:32;24.02;;;21.45;;
50773;SDS011;36745;48.544;8.918;2022-08-19T12:56:34;27.13;;;24.20;;
50773;SDS011;36745;48.544;8.918;2022-08-19T12:59:37;33.78;;;26.25;;
50773;SDS011;36745;48.544;8.918;2022-08-19T13:02:39;39.50;;;27.13;;
50773;SDS011;36745;48.544;8.918;2022-08-19T13:05:41;27.42;;;22.20;;
50773;SDS011;36745;48.544;8.918;2022-08-19T13:08:43;26.38;;;22.15;;
50773;SDS011;36745;48.544;8.918;2022-08-19T13:11:44;25.10;;;20.80;;
50773;SDS011;36745;48.544;8.918;2022-08-19T13:14:45;24.27;;;21.35;;
50773;SDS011;36745;48.544;8.918;2022-08-19T13:17:51;23.58;;;21.17;;
50773;SDS011;36745;48.544;8.918;2022-08-19T13:23:54;23.10;;;20.58;;
50773;SDS011;36745;48.544;8.918;2022-08-19T13:26:55;23.92;;;21.52;;
50773;SDS011;36745;48.544;8.918;2022-08-19T13:29:56;22.92;;;20.02;;
50773;SDS011;36745;48.544;8.918;2022-08-19T13:33:15;25.27;;;21.92;;
50773;SDS011;36745;48.544;8.918;2022-08-19T13:36:17;23.48;;;20.42;;
50773;SDS011;36745;48.544;8.918;2022-08-19T13:39:18;28.73;;;22.23;;
50773;SDS011;36745;48.544;8.918;2022-08-19T13:42:19;27.45;;;21.38;;
50773;SDS011;36745;48.544;8.918;2022-08-19T13:45:21;39.60;;;27.65;;
50773;SDS011;36745;48.544;8.918;2022-08-19T13:48:25;146.50;;;62.20;;
50773;SDS011;36745;48.544;8.918;2022-08-19T13:51:27;32.05;;;24.95;;
50773;SDS011;36745;48.544;8.918;2022-08-19T13:54:28;25.95;;;23.35;;
50773;SDS011;36745;48.544;8.918;2022-08-19T13:57:29;25.77;;;23.10;;
50773;SDS011;36745;48.544;8.918;2022-08-19T14:00:33;24.80;;;22.10;;
50773;SDS011;36745;48.544;8.918;2022-08-19T14:03:37;25.63;;;23.05;;
50773;SDS011;36745;48.544;8.918;2022-08-19T14:06:38;25.17;;;22.58;;
50773;SDS011;36745;48.544;8.918;2022-08-19T14:09:39;23.38;;;21.02;;
50773;SDS011;36745;48.544;8.918;2022-08-19T14:12:41;23.20;;;20.85;;
50773;SDS011;36745;48.544;8.918;2022-08-19T14:15:42;24.40;;;20.50;;
50773;SDS011;36745;48.544;8.918;2022-08-19T14:18:43;17.65;;;15.95;;
50773;SDS011;36745;48.544;8.918;2022-08-19T14:21:45;17.35;;;15.55;;
50773;SDS011;36745;48.544;8.918;2022-08-19T14:24:46;15.23;;;13.82;;
50773;SDS011;36745;48.544;8.918;2022-08-19T14:27:48;16.38;;;14.63;;
50773;SDS011;36745;48.544;8.918;2022-08-19T14:30:50;15.05;;;12.52;;
50773;SDS011;36745;48.544;8.918;2022-08-19T14:33:53;14.00;;;12.73;;
50773;SDS011;36745;48.544;8.918;2022-08-19T14:36:54;13.20;;;12.02;;
50773;SDS011;36745;48.544;8.918;2022-08-19T14:39:56;13.55;;;12.20;;
50773;SDS011;36745;48.544;8.918;2022-08-19T14:42:58;14.57;;;13.27;;
50773;SDS011;36745;48.544;8.918;2022-08-19T14:46:05;13.10;;;11.75;;
50773;SDS011;36745;48.544;8.918;2022-08-19T14:49:06;12.65;;;11.52;;
50773;SDS011;36745;48.544;8.918;2022-08-19T14:52:09;20.00;;;11.82;;
50773;SDS011;36745;48.544;8.918;2022-08-19T14:55:10;12.40;;;11.20;;
50773;SDS011;36745;48.544;8.918;2022-08-19T14:58:11;11.93;;;10.93;;
50773;SDS011;36745;48.544;8.918;2022-08-19T15:01:14;12.30;;;11.02;;
50773;SDS011;36745;48.544;8.918;2022-08-19T15:04:16;12.15;;;10.63;;
50773;SDS011;36745;48.544;8.918;2022-08-19T15:07:17;11.75;;;10.75;;
50773;SDS011;36745;48.544;8.918;2022-08-19T15:10:18;11.45;;;10.40;;
50773;SDS011;36745;48.544;8.918;2022-08-19T15:13:22;12.48;;;11.38;;
50773;SDS011;36745;48.544;8.918;2022-08-19T15:19:26;14.77;;;10.88;;
50773;SDS011;36745;48.544;8.918;2022-08-19T15:22:28;12.60;;;10.45;;
50773;SDS011;36745;48.544;8.918;2022-08-19T15:25:29;12.77;;;11.48;;
50773;SDS011;36745;48.544;8.918;2022-08-19T15:28:30;12.35;;;11.10;;
50773;SDS011;36745;48.544;8.918;2022-08-19T15:31:34;13.07;;;11.18;;
50773;SDS011;36745;48.544;8.918;2022-08-19T15:34:37;12.02;;;10.93;;
50773;SDS011;36745;48.544;8.918;2022-08-19T15:37:38;13.52;;;10.80;;
50773;SDS011;36745;48.544;8.918;2022-08-19T15:40:40;12.65;;;9.82;;
50773;SDS011;36745;48.544;8.918;2022-08-19T15:43:42;11.10;;;10.10;;
50773;SDS011;36745;48.544;8.918;2022-08-19T15:46:43;11.60;;;10.57;;
50773;SDS011;36745;48.544;8.918;2022-08-19T15:49:45;11.93;;;10.70;;
50773;SDS011;36745;48.544;8.918;2022-08-19T15:52:48;11.18;;;10.13;;
50773;SDS011;36745;48.544;8.918;2022-08-19T15:55:52;12.20;;;11.10;;
50773;SDS011;36745;48.544;8.918;2022-08-19T15:58:53;11.90;;;10.55;;
50773;SDS011;36745;48.544;8.918;2022-08-19T16:02:12;12.73;;;11.23;;
50773;SDS011;36745;48.544;8.918;2022-08-19T16:05:32;12.20;;;10.95;;
50773;SDS011;36745;48.544;8.918;2022-08-19T16:08:52;11.10;;;10.10;;
50773;SDS011;36745;48.544;8.918;2022-08-19T16:11:58;10.88;;;9.88;;
50773;SDS011;36745;48.544;8.918;2022-08-19T16:15:01;10.73;;;9.73;;
50773;SDS011;36745;48.544;8.918;2022-08-19T16:18:02;9.00;;;8.10;;
50773;SDS011;36745;48.544;8.918;2022-08-19T16:21:04;12.75;;;9.25;;
50773;SDS011;36745;48.544;8.918;2022-08-19T16:24:09;9.50;;;8.48;;
50773;SDS011;36745;48.544;8.918;2022-08-19T16:27:12;9.52;;;8.70;;
50773;SDS011;36745;48.544;8.918;2022-08-19T16:30:13;12.23;;;8.13;;
50773;SDS011;36745;48.544;8.918;2022-08-19T16:33:14;11.52;;;7.80;;
50773;SDS011;36745;48.544;8.918;2022-08-19T16:36:15;8.63;;;7.90;;
50773;SDS011;36745;48.544;8.918;2022-08-19T16:39:18;11.88;;;8.15;;
50773;SDS011;36745;48.544;8.918;2022-08-19T16:42:19;10.68;;;8.32;;
50773;SDS011;36745;48.544;8.918;2022-08-19T16:45:20;9.77;;;8.23;;
50773;SDS011;36745;48.544;8.918;2022-08-19T16:48:26;9.40;;;8.50;;
50773;SDS011;36745;48.544;8.918;2022-08-19T16:51:29;9.88;;;8.98;;
50773;SDS011;36745;48.544;8.918;2022-08-19T16:54:31;11.05;;;8.80;;
50773;SDS011;36745;48.544;8.918;2022-08-19T16:57:32;10.15;;;9.10;;
50773;SDS011;36745;48.544;8.918;2022-08-19T17:00:34;11.00;;;9.27;;
50773;SDS011;36745;48.544;8.918;2022-08-19T17:03:35;9.73;;;8.82;;
50773;SDS011;36745;48.544;8.918;2022-08-19T17:06:38;11.35;;;9.43;;
50773;SDS011;36745;48.544;8.918;2022-08-19T17:09:39;13.20;;;9.60;;
50773;SDS011;36745;48.544;8.918;2022-08-19T17:12:40;11.38;;;10.27;;
50773;SDS011;36745;48.544;8.918;2022-08-19T17:15:42;10.68;;;9.38;;
50773;SDS011;36745;48.544;8.918;2022-08-19T17:18:43;10.88;;;9.82;;
50773;SDS011;36745;48.544;8.918;2022-08-19T17:21:45;10.73;;;9.70;;
50773;SDS011;36745;48.544;8.918;2022-08-19T17:24:46;11.13;;;10.15;;
50773;SDS011;36745;48.544;8.918;2022-08-19T17:27:47;11.95;;;9.38;;
50773;SDS011;36745;48.544;8.918;2022-08-19T17:30:48;11.60;;;10.35;;
50773;SDS011;36745;48.544;8.918;2022-08-19T17:33:49;11.43;;;10.27;;
50773;SDS011;36745;48.544;8.918;2022-08-19T17:36:51;14.43;;;11.45;;
50773;SDS011;36745;48.544;8.918;2022-08-19T17:39:52;12.65;;;11.43;;
50773;SDS011;36745;48.544;8.918;2022-08-19T17:42:53;12.30;;;11.13;;
50773;SDS011;36745;48.544;8.918;2022-08-19T17:45:54;13.63;;;11.25;;
50773;SDS011;36745;48.544;8.918;2022-08-19T17:48:55;12.73;;;11.10;;
50773;SDS011;36745;48.544;8.918;2022-08-19T17:51:57;12.48;;;11.18;;
50773;SDS011;36745;48.544;8.918;2022-08-19T17:54:59;13.05;;;11.68;;
50773;SDS011;36745;48.544;8.918;2022-08-19T17:58:01;13.18;;;11.88;;
50773;SDS011;36745;48.544;8.918;2022-08-19T18:01:06;14.07;;;12.77;;
50773;SDS011;36745;48.544;8.918;2022-08-19T18:04:09;15.95;;;12.52;;
50773;SDS011;36745;48.544;8.918;2022-08-19T18:07:10;15.02;;;12.10;;
50773;SDS011;36745;48.544;8.918;2022-08-19T18:10:11;15.45;;;13.95;;
50773;SDS011;36745;48.544;8.918;2022-08-19T18:13:14;14.60;;;12.95;;
50773;SDS011;36745;48.544;8.918;2022-08-19T18:16:15;14.38;;;12.98;;
50773;SDS011;36745;48.544;8.918;2022-08-19T18:22:20;18.00;;;13.10;;
50773;SDS011;36745;48.544;8.918;2022-08-19T18:25:25;15.00;;;13.43;;
50773;SDS011;36745;48.544;8.918;2022-08-19T18:28:27;15.85;;;14.00;;